Time;durP1;ratioP1;P1;durP2;ratioP2;P2;SDS_P1;SDS_P2;PMS_P1;PMS_P2;Temp;Humidity;BMP_temperature;BMP_pressure;BME280_temperature;BME280_humidity;BME280_pressure;Samples;Min_cycle;Max_cycle;Signal;HPM_P1;HPM_P2
2024/01/03 00:00:21;;;;;;;1.13;0.40;;;9.40;99.90;;;;;;5013525;28;20513;-65
2024/01/03 00:02:48;;;;;;;0.30;0.30;;;9.40;99.90;;;;;;5008093;28;20061;-64
2024/01/03 00:05:14;;;;;;;0.40;0.40;;;9.40;99.90;;;;;;5016766;28;20398;-65
2024/01/03 00:07:41;;;;;;;0.40;0.35;;;9.30;99.90;;;;;;5008395;28;20033;-64
2024/01/03 00:10:24;;;;;;;1.20;0.40;;;9.20;99.90;;;;;;5007448;28;20084;-65
2024/01/03 00:12:50;;;;;;;0.40;0.38;;;9.40;99.90;;;;;;5008649;28;20678;-65
2024/01/03 00:15:34;;;;;;;0.40;0.30;;;9.50;99.90;;;;;;5006513;28;20044;-65
2024/01/03 00:18:04;;;;;;;0.30;0.30;;;9.40;99.90;;;;;;4999591;28;20057;-65
2024/01/03 00:20:32;;;;;;;0.43;0.43;;;9.40;99.90;;;;;;5011486;28;20036;-65
2024/01/03 00:23:10;;;;;;;0.35;0.32;;;9.40;99.90;;;;;;5005135;28;20038;-65
2024/01/03 00:25:36;;;;;;;0.50;0.50;;;9.40;99.90;;;;;;5008003;28;20037;-65
2024/01/03 00:28:02;;;;;;;0.20;0.20;;;9.30;99.90;;;;;;5005351;28;20089;-65
2024/01/03 00:30:28;;;;;;;0.30;0.30;;;9.30;99.90;;;;;;5002940;28;20037;-65
2024/01/03 00:32:53;;;;;;;0.40;0.25;;;9.30;99.90;;;;;;5021302;28;20038;-65
2024/01/03 00:35:20;;;;;;;0.40;0.40;;;9.30;99.90;;;;;;5012471;28;20061;-65
2024/01/03 00:37:46;;;;;;;0.20;0.20;;;9.30;99.90;;;;;;5003313;28;20108;-65
2024/01/03 00:40:31;;;;;;;0.28;0.28;;;9.40;99.90;;;;;;5009579;28;20034;-64
2024/01/03 00:42:56;;;;;;;0.30;0.30;;;9.30;99.90;;;;;;5001795;28;20177;-65
2024/01/03 00:45:22;;;;;;;0.85;0.20;;;9.20;99.90;;;;;;5011989;28;20116;-64
2024/01/03 00:47:48;;;;;;;0.60;0.30;;;9.20;99.90;;;;;;5006225;28;20132;-65
2024/01/03 00:50:15;;;;;;;1.95;0.60;;;9.20;99.90;;;;;;5002365;28;20034;-65
2024/01/03 00:52:41;;;;;;;0.38;0.38;;;9.20;99.90;;;;;;5009800;28;20057;-65
2024/01/03 00:55:09;;;;;;;0.17;0.17;;;9.10;99.90;;;;;;5013707;28;20032;-65
2024/01/03 00:57:36;;;;;;;0.55;0.30;;;9.10;99.90;;;;;;5001945;28;20112;-65
2024/01/03 01:00:04;;;;;;;3.00;0.35;;;9.10;99.90;;;;;;5008049;28;20453;-65
2024/01/03 01:02:29;;;;;;;0.38;0.20;;;9.10;99.90;;;;;;5000678;28;20215;-65
2024/01/03 01:04:56;;;;;;;0.75;0.22;;;9.00;99.90;;;;;;5001385;28;20140;-65
2024/01/03 01:07:21;;;;;;;0.57;0.30;;;9.10;99.90;;;;;;5009158;28;20738;-65
2024/01/03 01:09:47;;;;;;;0.10;0.10;;;9.10;99.90;;;;;;5004835;28;20172;-65
2024/01/03 01:12:13;;;;;;;0.20;0.20;;;9.00;99.90;;;;;;5011523;28;20039;-64
2024/01/03 01:14:39;;;;;;;0.30;0.30;;;9.00;99.90;;;;;;5002600;28;20033;-64
2024/01/03 01:17:05;;;;;;;0.85;0.20;;;8.90;99.90;;;;;;5003313;28;20140;-65
2024/01/03 01:19:30;;;;;;;0.65;0.32;;;8.90;99.90;;;;;;5010294;28;20034;-65
2024/01/03 01:21:56;;;;;;;1.38;0.20;;;8.80;99.90;;;;;;5006498;28;20547;-65
2024/01/03 01:24:22;;;;;;;0.25;0.20;;;8.80;99.90;;;;;;5003455;28;20061;-65
2024/01/03 01:26:48;;;;;;;0.90;0.30;;;8.80;99.90;;;;;;5003124;28;20516;-64
2024/01/03 01:29:13;;;;;;;0.52;0.22;;;8.80;99.90;;;;;;5007140;28;20321;-65
2024/01/03 01:31:40;;;;;;;0.43;0.22;;;8.70;99.90;;;;;;5026080;28;20057;-65
2024/01/03 01:34:06;;;;;;;1.05;0.32;;;8.70;99.90;;;;;;5008429;28;20590;-65
2024/01/03 01:36:32;;;;;;;0.73;0.20;;;8.70;99.90;;;;;;5006071;28;20109;-65
2024/01/03 01:38:57;;;;;;;0.10;0.10;;;8.70;99.90;;;;;;5010639;28;20022;-65
2024/01/03 01:41:23;;;;;;;0.17;0.10;;;8.70;99.90;;;;;;5010945;28;20445;-65
2024/01/03 01:43:49;;;;;;;0.20;0.15;;;8.70;99.90;;;;;;5023070;28;20048;-64
2024/01/03 01:46:16;;;;;;;0.10;0.00;;;8.80;99.90;;;;;;5010653;28;20034;-64
2024/01/03 01:48:43;;;;;;;0.15;0.15;;;8.90;99.90;;;;;;5004891;28;20332;-65
2024/01/03 01:51:10;;;;;;;2.15;0.30;;;8.90;99.90;;;;;;5028438;28;20038;-65
2024/01/03 01:53:36;;;;;;;1.15;0.17;;;8.90;99.90;;;;;;5013537;28;20033;-65
2024/01/03 01:56:02;;;;;;;0.13;0.13;;;8.90;99.90;;;;;;5000546;28;20553;-64
2024/01/03 01:58:29;;;;;;;0.47;0.10;;;9.00;99.90;;;;;;5014375;28;20036;-65
2024/01/03 02:00:56;;;;;;;0.28;0.10;;;9.00;99.90;;;;;;5013367;28;20034;-65
2024/01/03 02:03:22;;;;;;;0.10;0.10;;;9.00;99.90;;;;;;5009143;28;20104;-65
2024/01/03 02:05:49;;;;;;;0.22;0.20;;;9.00;99.90;;;;;;5005599;28;20774;-65
2024/01/03 02:08:16;;;;;;;0.70;0.20;;;8.90;99.90;;;;;;5018355;28;20062;-65
2024/01/03 02:10:42;;;;;;;0.30;0.20;;;9.00;99.90;;;;;;5019843;28;20034;-65
2024/01/03 02:13:07;;;;;;;0.85;0.17;;;9.00;99.90;;;;;;5003372;28;20677;-65
2024/01/03 02:15:33;;;;;;;0.22;0.22;;;9.10;99.90;;;;;;5002484;28;20029;-65
2024/01/03 02:18:01;;;;;;;0.38;0.10;;;9.20;99.90;;;;;;5009588;28;20034;-65
2024/01/03 02:20:33;;;;;;;0.35;0.30;;;9.20;99.90;;;;;;5007705;28;20040;-65
2024/01/03 02:22:59;;;;;;;1.33;0.13;;;9.20;99.90;;;;;;5014828;28;20041;-65
2024/01/03 02:25:25;;;;;;;0.10;0.10;;;9.20;99.90;;;;;;5008699;28;20032;-64
2024/01/03 02:27:51;;;;;;;0.30;0.20;;;9.20;99.90;;;;;;5000572;28;20702;-65
2024/01/03 02:30:17;;;;;;;0.10;0.10;;;9.20;99.90;;;;;;5015020;28;20025;-65
2024/01/03 02:32:42;;;;;;;0.13;0.13;;;9.20;99.90;;;;;;5005914;28;20033;-65
2024/01/03 02:35:08;;;;;;;0.28;0.20;;;9.20;99.90;;;;;;5002327;28;20688;-64
2024/01/03 02:37:35;;;;;;;0.30;0.10;;;9.10;99.90;;;;;;5012442;28;20041;-65
2024/01/03 02:40:00;;;;;;;0.30;0.15;;;9.10;99.90;;;;;;5002970;28;20042;-65
2024/01/03 02:42:26;;;;;;;0.20;0.20;;;9.20;99.90;;;;;;5009577;28;20037;-65
2024/01/03 02:44:52;;;;;;;1.83;0.35;;;9.30;99.90;;;;;;5007193;28;20063;-65
2024/01/03 02:47:18;;;;;;;0.10;0.10;;;9.30;99.90;;;;;;5006509;28;20038;-65
2024/01/03 02:49:43;;;;;;;0.22;0.10;;;9.20;99.90;;;;;;5024983;28;20026;-65
2024/01/03 02:52:09;;;;;;;0.28;0.20;;;9.10;99.90;;;;;;5012885;28;20046;-65
2024/01/03 02:54:35;;;;;;;1.83;0.10;;;9.20;99.90;;;;;;5000848;28;20039;-65
2024/01/03 02:57:01;;;;;;;0.10;0.10;;;9.20;99.90;;;;;;5008183;28;20029;-65
2024/01/03 02:59:26;;;;;;;0.73;0.20;;;9.20;99.90;;;;;;5018877;28;20057;-65
2024/01/03 03:01:52;;;;;;;1.02;0.30;;;9.20;99.90;;;;;;5003420;28;20037;-64
2024/01/03 03:04:18;;;;;;;0.20;0.20;;;9.00;99.90;;;;;;5010684;28;20033;-65
2024/01/03 03:06:44;;;;;;;1.00;0.10;;;9.00;99.90;;;;;;5001431;28;20076;-64
2024/01/03 03:09:10;;;;;;;0.00;0.00;;;9.10;99.90;;;;;;5013141;28;20038;-64
2024/01/03 03:11:36;;;;;;;0.50;0.10;;;9.10;99.90;;;;;;5009137;28;20041;-65
2024/01/03 03:14:01;;;;;;;1.02;0.10;;;9.20;99.90;;;;;;5000100;28;20034;-64
2024/01/03 03:16:27;;;;;;;0.43;0.10;;;9.00;99.90;;;;;;5006348;28;20039;-65
2024/01/03 03:18:53;;;;;;;0.55;0.20;;;8.90;99.90;;;;;;5003160;28;20065;-65
2024/01/03 03:21:19;;;;;;;1.85;0.20;;;8.90;99.90;;;;;;5003030;28;20041;-65
2024/01/03 03:23:44;;;;;;;1.33;0.20;;;8.90;99.90;;;;;;5009150;28;20036;-65
2024/01/03 03:26:11;;;;;;;0.20;0.15;;;8.90;99.90;;;;;;5003511;28;20058;-65
2024/01/03 03:28:37;;;;;;;0.55;0.40;;;8.90;99.90;;;;;;5010178;28;20026;-65
2024/01/03 03:31:03;;;;;;;0.10;0.10;;;8.90;99.90;;;;;;5006420;28;20497;-65
2024/01/03 03:33:32;;;;;;;0.10;0.10;;;8.80;99.90;;;;;;5000114;28;20041;-65
2024/01/03 03:35:57;;;;;;;0.32;0.20;;;8.90;99.90;;;;;;5010135;28;20109;-64
2024/01/03 03:38:23;;;;;;;0.20;0.20;;;8.90;99.90;;;;;;5008603;28;20063;-65
2024/01/03 03:40:49;;;;;;;0.20;0.10;;;8.80;99.90;;;;;;5006480;28;20030;-65
2024/01/03 03:43:14;;;;;;;1.77;0.30;;;8.80;99.90;;;;;;5011430;28;20037;-65
2024/01/03 03:45:40;;;;;;;0.75;0.20;;;8.80;99.90;;;;;;5000111;28;20034;-65
2024/01/03 03:48:06;;;;;;;2.95;0.40;;;8.90;99.90;;;;;;5007639;28;20046;-65
2024/01/03 03:50:32;;;;;;;0.90;0.32;;;8.90;99.90;;;;;;5016617;28;20116;-65
2024/01/03 03:52:58;;;;;;;0.95;0.30;;;8.90;99.90;;;;;;5004828;28;20125;-65
2024/01/03 03:55:23;;;;;;;0.20;0.10;;;9.00;99.90;;;;;;5013358;28;20087;-65
2024/01/03 03:57:49;;;;;;;0.55;0.20;;;9.00;99.90;;;;;;5005850;28;20074;-65
2024/01/03 04:00:15;;;;;;;0.35;0.10;;;9.00;99.90;;;;;;5002404;28;20044;-64
2024/01/03 04:02:41;;;;;;;0.90;0.15;;;9.00;99.90;;;;;;5015359;28;20030;-65
2024/01/03 04:05:07;;;;;;;0.20;0.10;;;8.90;99.90;;;;;;5008571;28;20118;-65
2024/01/03 04:07:33;;;;;;;1.65;0.15;;;8.90;99.90;;;;;;5010479;28;20378;-65
2024/01/03 04:09:58;;;;;;;1.35;0.25;;;8.90;99.90;;;;;;5010657;28;20044;-65
2024/01/03 04:12:24;;;;;;;0.50;0.20;;;8.90;99.90;;;;;;5005659;28;20044;-65
2024/01/03 04:14:50;;;;;;;0.32;0.30;;;8.90;99.90;;;;;;5007307;28;20033;-64
2024/01/03 04:17:16;;;;;;;1.00;0.20;;;8.90;99.90;;;;;;5004695;28;20040;-64
2024/01/03 04:19:42;;;;;;;2.67;0.17;;;8.90;99.90;;;;;;5003643;28;20029;-65
2024/01/03 04:22:08;;;;;;;1.88;0.20;;;8.90;99.90;;;;;;5009790;28;20042;-64
2024/01/03 04:24:33;;;;;;;3.10;0.22;;;8.90;99.90;;;;;;5007120;28;20025;-65
2024/01/03 04:26:59;;;;;;;0.60;0.22;;;9.00;99.90;;;;;;5010789;28;20029;-65
2024/01/03 04:29:25;;;;;;;0.95;0.30;;;9.10;99.90;;;;;;5009275;28;20393;-65
2024/01/03 04:31:50;;;;;;;0.20;0.20;;;9.10;99.90;;;;;;4998748;28;20544;-65
2024/01/03 04:34:16;;;;;;;1.17;0.45;;;9.10;99.90;;;;;;5018039;28;20116;-65
2024/01/03 04:36:42;;;;;;;1.13;0.20;;;9.10;99.90;;;;;;5004315;28;20066;-65
2024/01/03 04:39:08;;;;;;;0.45;0.25;;;9.20;99.90;;;;;;5000262;28;20133;-65
2024/01/03 04:41:33;;;;;;;0.43;0.30;;;9.10;99.90;;;;;;5010223;28;20041;-65
2024/01/03 04:43:59;;;;;;;0.28;0.28;;;9.10;99.90;;;;;;5001962;28;20022;-65
2024/01/03 04:46:25;;;;;;;0.30;0.20;;;9.10;99.90;;;;;;5001846;28;20030;-65
2024/01/03 04:48:50;;;;;;;0.28;0.15;;;9.10;99.90;;;;;;5009042;28;20030;-65
2024/01/03 04:51:17;;;;;;;3.10;0.20;;;9.00;99.90;;;;;;5004877;28;20043;-65
2024/01/03 04:53:43;;;;;;;1.33;0.32;;;9.00;99.90;;;;;;5009425;28;20814;-64
2024/01/03 04:56:09;;;;;;;0.88;0.17;;;8.90;99.90;;;;;;5005801;28;20034;-65
2024/01/03 04:58:34;;;;;;;0.70;0.25;;;8.90;99.90;;;;;;4998449;28;20034;-64
2024/01/03 05:01:00;;;;;;;0.82;0.30;;;8.90;99.90;;;;;;5007596;28;20588;-66
2024/01/03 05:03:26;;;;;;;1.65;0.32;;;8.90;99.90;;;;;;5006968;28;20038;-65
2024/01/03 05:05:52;;;;;;;1.38;0.30;;;8.90;99.90;;;;;;5005253;28;20080;-65
2024/01/03 05:08:18;;;;;;;1.00;0.30;;;8.80;99.90;;;;;;5013383;28;20029;-65
2024/01/03 05:10:43;;;;;;;0.55;0.30;;;8.80;99.90;;;;;;5003789;28;20053;-64
2024/01/03 05:13:09;;;;;;;3.45;0.43;;;8.80;99.90;;;;;;5009019;28;20494;-64
2024/01/03 05:15:35;;;;;;;1.70;0.40;;;8.80;99.90;;;;;;5010356;28;20026;-65
2024/01/03 05:18:00;;;;;;;0.30;0.20;;;8.90;99.90;;;;;;5001681;28;20703;-65
2024/01/03 05:20:26;;;;;;;1.27;0.73;;;8.90;99.90;;;;;;5015592;28;20064;-65
2024/01/03 05:22:52;;;;;;;2.30;0.30;;;8.90;99.90;;;;;;5012243;28;20084;-65
2024/01/03 05:25:18;;;;;;;0.63;0.20;;;8.90;99.90;;;;;;5006044;28;20048;-65
2024/01/03 05:27:43;;;;;;;3.45;0.73;;;8.90;99.90;;;;;;5011601;28;20044;-64
2024/01/03 05:30:10;;;;;;;1.55;0.25;;;9.00;99.90;;;;;;5005074;28;20026;-64
2024/01/03 05:32:36;;;;;;;1.02;0.30;;;9.00;99.90;;;;;;5017211;28;20123;-65
2024/01/03 05:35:02;;;;;;;0.57;0.20;;;9.10;99.90;;;;;;5009103;28;20064;-65
2024/01/03 05:37:27;;;;;;;4.30;0.20;;;9.00;99.90;;;;;;5008211;28;20045;-65
2024/01/03 05:39:53;;;;;;;2.92;0.30;;;9.10;99.90;;;;;;5010496;28;20717;-65
2024/01/03 05:42:19;;;;;;;2.20;0.30;;;9.10;99.90;;;;;;5011181;28;20485;-65
2024/01/03 05:44:45;;;;;;;1.13;0.40;;;9.10;99.90;;;;;;5011078;28;20056;-65
2024/01/03 05:47:11;;;;;;;2.58;0.20;;;9.10;99.90;;;;;;5017501;28;20045;-64
2024/01/03 05:49:37;;;;;;;1.73;0.40;;;9.10;99.90;;;;;;5012931;28;20486;-65
2024/01/03 05:52:02;;;;;;;0.95;0.22;;;9.10;99.90;;;;;;5008580;28;20398;-64
2024/01/03 05:54:28;;;;;;;0.82;0.40;;;9.10;99.90;;;;;;5015465;28;20041;-65
2024/01/03 05:56:54;;;;;;;1.10;0.30;;;9.10;99.90;;;;;;5009167;28;20401;-64
2024/01/03 05:59:20;;;;;;;3.13;0.30;;;9.10;99.90;;;;;;5009105;28;20556;-61
2024/01/03 06:01:46;;;;;;;1.45;0.25;;;9.20;99.90;;;;;;5004271;28;20827;-61
2024/01/03 06:04:13;;;;;;;3.08;0.30;;;9.20;99.90;;;;;;5009691;28;20042;-61
2024/01/03 06:06:41;;;;;;;2.65;0.30;;;9.20;99.90;;;;;;5008056;28;20034;-61
2024/01/03 06:09:07;;;;;;;0.63;0.30;;;9.20;99.90;;;;;;5004217;28;20030;-64
2024/01/03 06:11:32;;;;;;;2.13;0.50;;;9.20;99.90;;;;;;5013403;28;20487;-65
2024/01/03 06:13:58;;;;;;;0.90;0.35;;;9.20;99.90;;;;;;5014351;28;20030;-65
2024/01/03 06:16:24;;;;;;;0.40;0.20;;;9.20;99.90;;;;;;5014156;28;20772;-64
2024/01/03 06:18:49;;;;;;;3.15;0.75;;;9.10;99.90;;;;;;5012626;28;20493;-65
2024/01/03 06:21:15;;;;;;;1.88;0.40;;;9.20;99.90;;;;;;5012759;28;20608;-65
2024/01/03 06:23:41;;;;;;;1.20;0.43;;;9.30;99.90;;;;;;5010860;28;20034;-64
2024/01/03 06:26:07;;;;;;;1.27;0.43;;;9.30;99.90;;;;;;5016853;28;20029;-64
2024/01/03 06:28:33;;;;;;;4.15;0.40;;;9.30;99.90;;;;;;5009634;28;20056;-64
2024/01/03 06:31:00;;;;;;;4.47;0.47;;;9.30;99.90;;;;;;5007212;28;20033;-65
2024/01/03 06:33:26;;;;;;;1.27;0.40;;;9.30;99.90;;;;;;5015203;28;20034;-65
2024/01/03 06:35:52;;;;;;;5.70;0.98;;;9.30;99.90;;;;;;5001309;28;20092;-65
2024/01/03 06:38:18;;;;;;;2.03;0.30;;;9.30;99.90;;;;;;5009688;28;20021;-65
2024/01/03 06:40:43;;;;;;;2.35;0.50;;;9.40;99.90;;;;;;5012840;28;20034;-65
2024/01/03 06:43:09;;;;;;;3.72;0.80;;;9.40;99.90;;;;;;5011398;28;20092;-65
2024/01/03 06:45:35;;;;;;;2.42;0.40;;;9.40;99.90;;;;;;5016851;28;20034;-65
2024/01/03 06:48:02;;;;;;;2.90;0.50;;;9.40;99.90;;;;;;5008888;28;20053;-65
2024/01/03 06:50:28;;;;;;;1.80;0.30;;;9.40;99.90;;;;;;5013915;28;20029;-64
2024/01/03 06:52:53;;;;;;;0.15;0.13;;;9.50;99.90;;;;;;5010553;28;20041;-65
2024/01/03 06:55:19;;;;;;;0.98;0.30;;;9.60;99.90;;;;;;5007766;28;20064;-65
2024/01/03 06:57:45;;;;;;;2.95;0.50;;;9.60;99.90;;;;;;5013735;28;20393;-65
2024/01/03 07:00:11;;;;;;;1.48;0.40;;;9.60;99.90;;;;;;5015212;28;20030;-65
2024/01/03 07:02:37;;;;;;;3.08;0.30;;;9.60;99.90;;;;;;5012895;28;20026;-65
2024/01/03 07:05:03;;;;;;;1.30;0.30;;;9.60;99.90;;;;;;5016331;28;20048;-65
2024/01/03 07:07:29;;;;;;;1.70;0.40;;;9.60;99.90;;;;;;5008244;28;20026;-65
2024/01/03 07:09:54;;;;;;;0.80;0.30;;;9.60;99.90;;;;;;5003756;28;20036;-65
2024/01/03 07:12:20;;;;;;;2.40;0.30;;;9.70;99.90;;;;;;5009826;28;20120;-65
2024/01/03 07:14:46;;;;;;;1.38;0.55;;;9.60;99.90;;;;;;5001594;28;20040;-65
2024/01/03 07:17:14;;;;;;;3.95;0.35;;;9.50;99.90;;;;;;5007246;28;20461;-65
2024/01/03 07:19:39;;;;;;;0.77;0.28;;;9.60;99.90;;;;;;5007141;28;20053;-65
2024/01/03 07:22:05;;;;;;;1.67;0.70;;;9.60;99.90;;;;;;5008139;28;20194;-65
2024/01/03 07:24:31;;;;;;;2.42;0.40;;;9.70;99.90;;;;;;5017614;28;20032;-65
2024/01/03 07:26:57;;;;;;;3.47;0.60;;;9.60;99.90;;;;;;5004903;28;20035;-64
2024/01/03 07:29:22;;;;;;;1.80;0.70;;;9.60;99.90;;;;;;5006628;28;20030;-65
2024/01/03 07:31:48;;;;;;;3.45;0.80;;;9.60;99.90;;;;;;5008628;28;20034;-65
2024/01/03 07:34:14;;;;;;;2.40;0.52;;;9.50;99.90;;;;;;5010454;28;20728;-65
2024/01/03 07:36:39;;;;;;;3.47;0.30;;;9.40;99.90;;;;;;5009986;28;20042;-65
2024/01/03 07:39:07;;;;;;;1.92;0.80;;;9.50;99.90;;;;;;5009481;28;20046;-65
2024/01/03 07:41:35;;;;;;;3.33;1.10;;;9.50;99.90;;;;;;5004957;28;20042;-65
2024/01/03 07:44:02;;;;;;;1.50;0.20;;;9.50;99.90;;;;;;5011613;28;20021;-65
2024/01/03 07:46:28;;;;;;;2.60;1.10;;;9.50;99.90;;;;;;5006627;28;20441;-65
2024/01/03 07:48:53;;;;;;;2.63;0.50;;;9.50;99.90;;;;;;4999420;28;20026;-64
2024/01/03 07:51:19;;;;;;;1.77;0.65;;;9.50;99.90;;;;;;5011987;28;20037;-65
2024/01/03 07:53:45;;;;;;;0.70;0.30;;;9.50;99.90;;;;;;5030355;22;20080;-62
2024/01/03 07:56:12;;;;;;;3.08;0.45;;;9.50;99.90;;;;;;5001356;28;20061;-62
2024/01/03 07:58:37;;;;;;;2.78;0.85;;;9.50;99.90;;;;;;5021614;28;20140;-63
2024/01/03 08:01:03;;;;;;;3.28;0.75;;;9.60;99.90;;;;;;5016224;28;20386;-61
2024/01/03 08:03:29;;;;;;;1.42;0.32;;;9.60;99.90;;;;;;5021031;28;20148;-62
2024/01/03 08:05:55;;;;;;;2.17;0.50;;;9.60;99.90;;;;;;5020981;28;20076;-63
2024/01/03 08:08:21;;;;;;;0.85;0.30;;;9.70;99.90;;;;;;5018580;28;20029;-62
2024/01/03 08:10:47;;;;;;;0.30;0.20;;;9.80;99.90;;;;;;5023590;28;20029;-60
2024/01/03 08:13:12;;;;;;;2.05;0.40;;;9.80;99.90;;;;;;4999341;28;20046;-61
2024/01/03 08:15:38;;;;;;;2.58;0.63;;;9.70;99.90;;;;;;5020780;28;20042;-62
2024/01/03 08:18:04;;;;;;;1.40;0.68;;;9.80;99.90;;;;;;5022779;28;20065;-62
2024/01/03 08:20:30;;;;;;;0.95;0.60;;;9.80;99.90;;;;;;5018402;28;20029;-63
2024/01/03 08:22:56;;;;;;;0.63;0.32;;;9.70;99.90;;;;;;5019517;28;20040;-61
2024/01/03 08:25:22;;;;;;;2.17;0.75;;;9.80;99.90;;;;;;5021075;28;20036;-63
2024/01/03 08:27:48;;;;;;;0.47;0.28;;;9.80;99.90;;;;;;5018368;28;20393;-61
2024/01/03 08:30:14;;;;;;;2.47;0.73;;;9.70;99.90;;;;;;5024200;28;20030;-60
2024/01/03 08:32:40;;;;;;;1.92;0.40;;;9.80;99.90;;;;;;5018904;28;20091;-60
2024/01/03 08:35:07;;;;;;;4.38;0.40;;;9.90;99.90;;;;;;5018439;28;20423;-60
2024/01/03 08:37:33;;;;;;;1.83;0.32;;;9.80;99.90;;;;;;5019558;28;20037;-60
2024/01/03 08:40:00;;;;;;;1.58;0.30;;;9.80;99.90;;;;;;5015107;28;20037;-60
2024/01/03 08:42:26;;;;;;;3.40;0.50;;;9.70;99.90;;;;;;5019647;28;20504;-60
2024/01/03 08:44:52;;;;;;;2.38;0.30;;;9.80;99.90;;;;;;5018712;28;20029;-60
2024/01/03 08:47:18;;;;;;;2.25;0.10;;;9.80;99.90;;;;;;5020220;28;20030;-60
2024/01/03 08:49:45;;;;;;;1.42;0.30;;;9.80;99.90;;;;;;5022891;28;20029;-62
2024/01/03 08:52:10;;;;;;;0.38;0.30;;;9.80;99.90;;;;;;5017621;28;20038;-62
2024/01/03 08:54:36;;;;;;;3.70;0.30;;;9.90;99.90;;;;;;5017222;28;20045;-61
2024/01/03 08:57:03;;;;;;;3.30;0.30;;;10.00;99.90;;;;;;5020555;28;20506;-61
2024/01/03 08:59:28;;;;;;;2.17;0.25;;;10.10;99.90;;;;;;5018719;28;20124;-62
2024/01/03 09:01:56;;;;;;;2.65;0.40;;;10.10;99.90;;;;;;5002245;28;20247;-63
2024/01/03 09:04:22;;;;;;;1.70;0.30;;;10.00;99.90;;;;;;5020483;28;20029;-62
2024/01/03 09:06:51;;;;;;;1.00;0.43;;;10.00;99.90;;;;;;5018204;28;20033;-61
2024/01/03 09:09:17;;;;;;;3.45;1.35;;;10.00;99.90;;;;;;5004081;28;20037;-61
2024/01/03 09:11:42;;;;;;;3.47;1.75;;;10.10;99.90;;;;;;5018762;28;20039;-61
2024/01/03 09:14:08;;;;;;;2.30;1.00;;;10.10;99.90;;;;;;5015168;28;20046;-61
2024/01/03 09:16:34;;;;;;;2.55;0.77;;;10.10;99.90;;;;;;5022183;28;20064;-60
2024/01/03 09:19:02;;;;;;;2.03;0.50;;;10.20;99.90;;;;;;5016268;28;20030;-60
2024/01/03 09:21:28;;;;;;;1.88;0.40;;;10.20;99.90;;;;;;5019292;28;20045;-62
2024/01/03 09:23:54;;;;;;;2.30;0.40;;;10.20;99.90;;;;;;5018242;28;20033;-60
2024/01/03 09:26:22;;;;;;;4.95;1.52;;;10.30;99.90;;;;;;5016940;28;20029;-61
2024/01/03 09:28:49;;;;;;;4.50;0.32;;;10.30;99.90;;;;;;5022851;28;20129;-61
2024/01/03 09:31:15;;;;;;;5.75;2.15;;;10.30;99.90;;;;;;5016415;28;20036;-60
2024/01/03 09:33:41;;;;;;;3.20;1.30;;;10.40;99.90;;;;;;5006687;28;20091;-60
2024/01/03 09:36:21;;;;;;;3.25;0.75;;;10.40;99.90;;;;;;5020194;28;20029;-60
2024/01/03 09:38:48;;;;;;;1.40;0.20;;;10.40;99.90;;;;;;5019156;28;20030;-60
2024/01/03 09:41:15;;;;;;;2.72;0.60;;;10.50;99.90;;;;;;5018924;28;20552;-61
2024/01/03 09:43:42;;;;;;;5.95;0.40;;;10.70;99.90;;;;;;5023479;28;20489;-59
2024/01/03 09:46:11;;;;;;;15.93;1.83;;;10.90;99.90;;;;;;5016117;28;20040;-59
2024/01/03 09:48:41;;;;;;;6.95;0.90;;;11.00;99.90;;;;;;5023576;28;20056;-59
2024/01/03 09:51:10;;;;;;;2.67;0.57;;;10.90;99.90;;;;;;5019132;28;20038;-66
2024/01/03 09:53:37;;;;;;;7.82;1.65;;;10.90;99.90;;;;;;5022713;28;20037;-61
2024/01/03 09:56:03;;;;;;;6.07;2.35;;;11.00;99.90;;;;;;5023474;28;20049;-60
2024/01/03 09:58:29;;;;;;;1.75;1.10;;;11.00;99.90;;;;;;5024557;28;20037;-64
2024/01/03 10:00:55;;;;;;;6.53;1.27;;;11.00;99.90;;;;;;5023900;28;20025;-61
2024/01/03 10:03:21;;;;;;;8.88;2.83;;;11.00;99.90;;;;;;5023883;28;20104;-62
2024/01/03 10:05:47;;;;;;;3.70;1.73;;;11.00;99.90;;;;;;5017584;28;20140;-62
2024/01/03 10:08:15;;;;;;;4.18;1.50;;;11.10;99.90;;;;;;5024309;28;20583;-62
2024/01/03 10:10:41;;;;;;;6.00;0.93;;;11.10;99.90;;;;;;5020467;28;20026;-62
2024/01/03 10:13:15;;;;;;;6.30;1.80;;;11.10;99.90;;;;;;5020846;28;20083;-61
2024/01/03 10:15:43;;;;;;;2.67;0.73;;;11.10;99.90;;;;;;5025333;28;20037;-61
2024/01/03 10:18:10;;;;;;;2.22;0.55;;;11.00;99.90;;;;;;5019440;28;20884;-61
2024/01/03 10:20:36;;;;;;;2.13;0.50;;;11.10;99.90;;;;;;5022547;28;20065;-62
2024/01/03 10:23:08;;;;;;;1.98;0.68;;;11.20;99.90;;;;;;5020900;28;20060;-62
2024/01/03 10:25:35;;;;;;;2.97;0.70;;;11.10;99.90;;;;;;5023941;28;20029;-61
2024/01/03 10:28:06;;;;;;;4.00;1.02;;;11.10;99.90;;;;;;5023291;28;20022;-62
2024/01/03 10:30:32;;;;;;;1.52;0.55;;;11.10;99.90;;;;;;5021657;28;20111;-61
2024/01/03 10:33:03;;;;;;;4.85;0.45;;;11.20;99.90;;;;;;5019821;28;20036;-61
2024/01/03 10:35:33;;;;;;;3.33;0.65;;;11.20;99.90;;;;;;5005383;28;20045;-61
2024/01/03 10:38:00;;;;;;;1.98;0.35;;;11.30;99.90;;;;;;5017694;28;20435;-61
2024/01/03 10:40:36;;;;;;;3.80;0.75;;;11.30;99.90;;;;;;5023830;28;20128;-61
2024/01/03 10:43:03;;;;;;;4.97;0.35;;;11.20;99.90;;;;;;5021049;28;20113;-62
2024/01/03 10:45:30;;;;;;;0.60;0.30;;;11.10;99.90;;;;;;5019846;28;20025;-62
2024/01/03 10:47:57;;;;;;;2.20;0.60;;;11.10;99.90;;;;;;5024622;28;20028;-62
2024/01/03 10:50:23;;;;;;;1.35;0.30;;;11.20;99.90;;;;;;5017971;28;20049;-63
2024/01/03 10:52:57;;;;;;;3.03;0.95;;;11.10;99.90;;;;;;5018690;28;20069;-62
2024/01/03 10:55:32;;;;;;;2.35;0.43;;;11.00;99.90;;;;;;5020407;28;20033;-62
2024/01/03 10:58:08;;;;;;;2.67;0.50;;;11.00;99.90;;;;;;5023884;28;20040;-64
2024/01/03 11:00:37;;;;;;;2.15;0.40;;;11.00;99.90;;;;;;5027081;28;20048;-64
2024/01/03 11:03:31;;;;;;;4.03;0.50;;;10.90;99.90;;;;;;5025539;28;20025;-64
2024/01/03 11:06:23;;;;;;;2.95;0.65;;;11.00;99.90;;;;;;5018757;28;20108;-62
2024/01/03 11:08:54;;;;;;;2.17;0.40;;;11.00;99.90;;;;;;5024722;28;20033;-63
2024/01/03 11:11:33;;;;;;;1.27;0.40;;;11.10;99.90;;;;;;5022700;28;20026;-63
2024/01/03 11:14:19;;;;;;;3.50;0.70;;;11.00;99.90;;;;;;5026930;28;20041;-63
2024/01/03 11:16:45;;;;;;;0.65;0.32;;;11.00;99.90;;;;;;5026555;28;20116;-63
2024/01/03 11:19:12;;;;;;;2.15;0.50;;;11.20;99.90;;;;;;5026541;28;20112;-64
2024/01/03 11:21:39;;;;;;;2.00;0.52;;;11.10;99.90;;;;;;5023303;28;20033;-64
2024/01/03 11:24:07;;;;;;;2.88;0.65;;;11.10;99.90;;;;;;5017006;28;20018;-63
2024/01/03 11:26:52;;;;;;;0.28;0.20;;;11.10;99.90;;;;;;5025764;28;20030;-62
2024/01/03 11:29:36;;;;;;;6.22;0.70;;;11.10;99.90;;;;;;5023080;28;20117;-64
2024/01/03 11:32:04;;;;;;;2.13;0.40;;;11.00;99.90;;;;;;5008185;28;20441;-63
2024/01/03 11:34:49;;;;;;;1.05;0.55;;;11.10;99.90;;;;;;5024510;28;20029;-64
2024/01/03 11:37:20;;;;;;;2.05;0.28;;;11.10;99.90;;;;;;5007237;28;20730;-63
2024/01/03 11:39:50;;;;;;;3.25;0.55;;;11.10;99.90;;;;;;5025499;28;20033;-63
2024/01/03 11:42:19;;;;;;;3.63;0.60;;;11.10;99.90;;;;;;5022925;28;20771;-64
2024/01/03 11:44:45;;;;;;;3.13;0.70;;;11.00;99.90;;;;;;5025948;28;20120;-63
2024/01/03 11:47:11;;;;;;;2.65;0.40;;;10.90;99.90;;;;;;5025273;28;20053;-63
2024/01/03 11:49:37;;;;;;;3.60;0.55;;;10.80;99.90;;;;;;5003112;28;20033;-63
2024/01/03 11:52:03;;;;;;;4.25;0.60;;;10.80;99.90;;;;;;5023456;28;20029;-63
2024/01/03 11:54:32;;;;;;;0.63;0.30;;;10.90;99.90;;;;;;5025792;28;20037;-63
2024/01/03 11:56:58;;;;;;;3.80;0.82;;;10.90;99.90;;;;;;5021814;28;20592;-63
2024/01/03 11:59:25;;;;;;;3.33;0.60;;;11.00;99.90;;;;;;5024156;28;20429;-63
2024/01/03 12:02:00;;;;;;;5.30;1.23;;;11.10;99.90;;;;;;5023437;28;20044;-63
2024/01/03 12:04:27;;;;;;;7.28;0.65;;;11.10;99.90;;;;;;5017359;28;20029;-63
2024/01/03 12:06:57;;;;;;;4.32;0.80;;;11.20;99.90;;;;;;5024639;28;20112;-67
2024/01/03 12:09:29;;;;;;;3.40;0.70;;;11.00;99.90;;;;;;5018400;28;20547;-64
2024/01/03 12:11:55;;;;;;;2.92;0.70;;;11.00;99.90;;;;;;5023836;28;20037;-63
2024/01/03 12:14:21;;;;;;;4.85;1.88;;;11.00;99.90;;;;;;5025198;28;20033;-63
2024/01/03 12:16:55;;;;;;;2.30;0.68;;;11.00;99.90;;;;;;5018794;28;20030;-62
2024/01/03 12:19:27;;;;;;;17.40;8.65;;;11.00;99.90;;;;;;5025438;28;20182;-64
2024/01/03 12:22:02;;;;;;;5.15;1.80;;;11.00;99.90;;;;;;5025200;28;20029;-63
2024/01/03 12:24:41;;;;;;;5.78;1.98;;;11.00;99.90;;;;;;5020821;28;20032;-64
2024/01/03 12:27:08;;;;;;;4.97;0.85;;;11.00;99.90;;;;;;5025346;28;20041;-63
2024/01/03 12:29:34;;;;;;;5.07;1.13;;;11.00;99.90;;;;;;5017065;28;20026;-64
2024/01/03 12:32:16;;;;;;;7.50;1.73;;;11.10;99.90;;;;;;5021608;28;20038;-62
2024/01/03 12:34:44;;;;;;;4.35;1.38;;;11.10;99.90;;;;;;5020323;28;20032;-63
2024/01/03 12:37:09;;;;;;;6.38;1.90;;;11.10;99.90;;;;;;5006416;28;20042;-63
2024/01/03 12:39:36;;;;;;;6.15;1.38;;;11.10;99.90;;;;;;5024484;28;20489;-64
2024/01/03 12:42:08;;;;;;;6.07;1.58;;;11.10;99.90;;;;;;5015786;28;20107;-63
2024/01/03 12:44:39;;;;;;;3.88;1.63;;;11.10;99.90;;;;;;5021599;28;20084;-62
2024/01/03 12:47:11;;;;;;;6.97;0.85;;;11.20;99.90;;;;;;5022948;28;20029;-63
2024/01/03 12:49:41;;;;;;;5.78;1.10;;;11.40;99.90;;;;;;5023525;28;20056;-63
2024/01/03 12:52:08;;;;;;;4.85;0.77;;;11.50;99.90;;;;;;5023808;28;20030;-65